Tiempo atmosférico en la estación meteorológica de Tarifa, Cádiz (32 m.)



Fecha
DESCASC
Temp. máxima en grados centígrados (hora)
DESCASC
Temp. mínima en grados centígrados (hora)
DESCASC
Temp. media en grados centígrados
DESCASC
Racha de viento máxima en m/sg (hora)
DESCASC
Velocidad máxima media en intervalos de 10 minutos(hora)
DESCASC
Precipitaciones diarias en mm
DESCASC
Precipitaciones de 00:00 a 06:00 en mm
DESCASC
Precipitaciones de 06:00 a 12:00 en mm
DESCASC
Precipitaciones de 12:00 a 18:00 en mm
DESCASC
Precipitaciones de 18:00 a 24:00 en mm
DESCASC
22-01-2020 14 (12:50) 9.2 (01:30) 11.6 9.44 (18:50) 6.11 (18:40) 3 0 0 0.3 2.7
21-01-2020 14.1 (14:40) 7.6 (08:00) 10.9 10.83 (00:20) 5.83 (00:10) 0 0 0 0 0
20-01-2020 12.2 (12:40) 7.4 (08:40) 9.8 13.33 (06:20) 8.33 (02:50) 3.1 1.9 0.9 0 0.3
19-01-2020 15.7 (00:50) 8.4 (00:00) 12 16.67 (01:40) 10.56 (01:40) 1.8 1.8 0 0 0
18-01-2020 16.4 (13:00) 8.8 (00:00) 12.6 13.61 (21:50) 9.72 (20:30) 2.2 0 0 0 2.2
17-01-2020 16.4 (15:30) 7.6 (00:00) 12 7.22 (14:50) 4.72 (14:50) 0 0 0 0 0
16-01-2020 16.2 (14:30) 7.8 (00:00) 12 9.17 (13:10) 6.67 (13:50) 0 0 0 0 0
15-01-2020 18.5 (15:10) 7.3 (00:00) 12.9 3.89 (15:50) 3.06 (19:20) 0 0 0 0 0
14-01-2020 16 (16:20) 7.7 (00:00) 11.8 8.06 (11:30) 5.56 (11:30) 0 0 0 0 0
13-01-2020 15.5 (13:50) 8.4 (00:00) 11.9 11.39 (12:10) 7.5 (03:30) 0 0 0 0 0
12-01-2020 15.7 (14:20) 11.7 (00:00) 13.7 12.78 (00:10) 8.61 (00:10) 0 0 0 0 0
11-01-2020 15.9 (12:50) 7.7 (00:00) 11.8 14.17 (12:50) 10 (12:30) 0.3 0 0 0.3 0
10-01-2020 14.1 (16:00) 7.1 (00:00) 10.6 12.22 (12:30) 6.67 (12:30) 0 0 0 0 0
09-01-2020 15.9 (13:20) 8.4 (00:00) 12.1 13.89 (00:40) 9.17 (00:30) 0 0 0 0 0
08-01-2020 15.7 (14:20) 11.4 (00:00) 13.5 13.06 (23:50) 8.61 (21:10) 0 0 0 0 0
07-01-2020 15.6 (13:50) 12.1 (00:00) 13.9 14.17 (12:00) 9.44 (11:50) 0 0 0 0 0
06-01-2020 14.6 (16:50) 12.4 (00:00) 13.5 13.89 (23:50) 8.61 (01:10) 0 0 0 0 0
05-01-2020 15.4 (12:00) 13.8 (00:00) 14.6 15 (14:10) 10.56 (20:30) 0 0 0 0 0
04-01-2020 15.3 (13:30) 6.5 (00:00) 10.9 14.44 (23:50) 10 (23:50) 0 0 0 0 0
03-01-2020 15.8 (14:50) 9.1 (00:00) 12.5 8.33 (00:20) 5.28 (14:50) 0 0 0 0 0
02-01-2020 15.7 (14:30) 12.2 (00:00) 13.9 11.94 (10:40) 8.33 (10:30) 0 0 0 0 0
01-01-2020 15.8 (14:10) 12.5 (00:00) 14.2 16.94 (02:00) 11.67 (02:00) 0 0 0 0 0
31-12-2019 15.7 (13:00) 13 (00:00) 14.3 19.72 (03:20) 12.78 (10:50) 0 0 0 0 0
30-12-2019 15.9 (14:40) 13.5 (00:00) 14.7 20 (05:40) 13.89 (01:50) 0 0 0 0 0
29-12-2019 15.9 (14:00) 13.4 (00:00) 14.6 23.06 (09:40) 15.83 (11:40) 0 0 0 0 0
28-12-2019 15.9 (13:20) 14.1 (00:00) 15 21.11 (23:59) 13.61 (09:30) 0 0 0 0 0
27-12-2019 16.3 (13:20) 14.3 (00:00) 15.3 21.94 (21:10) 15.83 (20:00) 0 0 0 0 0
26-12-2019 19.2 (13:30) 9.8 (00:00) 14.5 16.11 (23:40) 10 (23:40) 0 0 0 0 0
25-12-2019 18.4 (12:10) 11.6 (00:00) 15 12.5 (01:00) 8.89 (00:40) 0 0 0 0 0

Gráficas

Temp. máximas Temp. mínimas Temp. medias Precipitaciones Rachas de viento máximas Velocidades máximas media en intervalos de 10 minutos

Datos horarios

Fecha y hora oficial Temperatura (ºC) Velocidad del viento (km/h) Dirección del viento Racha (km/h) Dirección de racha Precipitación (mm) Presión (hPa) Tendencia (hPa) Humedad (%)
2020-01-23 23:00:00 11.1 6 Este 14 Nordeste 0.3 1014.6 1.5 97
2020-01-23 22:00:00 10.4 6 Norte 15 Sudoeste 1.7 1014 1.6 97
2020-01-23 21:00:00 11.4 15 Sudoeste 27 Sudoeste 2.3 1014.1 2.2 93
2020-01-23 20:00:00 12 11 Sudoeste 25 Sudoeste 0.8 1013.1 1.6 88
2020-01-23 19:00:00 11.9 8 Sur 46 Sur 1.1 1012.4 1 87
2020-01-23 18:00:00 14 10 Sur 27 Sur 0.1 1011.9 0.5 76
2020-01-23 17:00:00 14 9 Sur 25 Sur 0.1 1011.5 -0.3 74
2020-01-23 16:00:00 14.3 19 Sur 36 Sur 0 1011.4 -1.1 73
2020-01-23 15:00:00 14.3 25 Sur 36 Sur 1 1011.4 -1.7 73
2020-01-23 14:00:00 14.9 8 Este 14 Este 0 1011.8 -1.2 77
2020-01-23 13:00:00 14.6 8 Sur 19 Sur 0 1012.5 0.3 71
2020-01-23 12:00:00 14.1 5 Sudeste 20 Sudeste 0 1013.1 1.3 70
2020-01-23 11:00:00 13.7 4 Sudeste 19 Sudeste 0 1013 1.8 75
2020-01-23 10:00:00 12.4 10 Sudeste 21 Sur 0.1 1012.2 1.3 81
2020-01-23 09:00:00 11.6 15 Sur 42 Sur 0.4 1011.8 0.7 81
2020-01-23 08:00:00 11.1 7 Este 15 Este 0 1011.2 0 86
2020-01-23 07:00:00 10.9 11 Este 36 Sur 0.6 1010.9 -0.4 88
2020-01-23 06:00:00 13 8 Sudeste 24 Este 0 1011.1 -0.6 74
2020-01-23 05:00:00 12.2 15 Este 23 Este 0 1011.2 -0.7 77
2020-01-23 04:00:00 12.5 11 Sudeste 21 Sudeste 0 1011.3 -0.5 74
2020-01-23 03:00:00 12.2 8 Sudeste 22 Sudeste 0 1011.7 -0.4 73
2020-01-23 02:00:00 12.1 9 Sudeste 30 Sudeste 0 1011.9 -0.2 76
2020-01-23 01:00:00 11.9 15 Sudeste 25 Sudeste 0 1011.8 -0.1 79
2020-01-23 00:00:00 11.7 16 Este 24 Este 0.2 1012.1 0.6 91
2020-01-22 23:00:00 11.4 13 Este 29 Este 0.3 1012.1 0.6 86
2020-01-22 22:00:00 11 13 Este 21 Este 0.3 1011.9 0.7 91
2020-01-22 21:00:00 10.2 12 Este 17 Este 0.2 1011.5 1.2 93
2020-01-22 20:00:00 10.8 6 Sur 25 Sudeste 0.7 1011.5 1.3 90
2020-01-22 19:00:00 11.2 12 Sudeste 34 Sudeste 1 1011.2 1.3 85
2020-01-22 18:00:00 11 15 Nordeste 32 Este 0.2 1010.3 0.3 88
2020-01-22 17:00:00 11.5 17 Este 27 Este 0 1010.2 -0.3 84
2020-01-22 16:00:00 11.6 14 Este 26 Este 0.1 1009.9 -1.4 84
2020-01-22 15:00:00 11.8 19 Este 29 Este 0 1010 -1.5 80
2020-01-22 14:00:00 12.4 18 Este 28 Este 0 1010.5 -0.4 79
2020-01-22 13:00:00 13.3 12 Este 21 Este 0 1011.3 1 75
2020-01-22 12:00:00 13.3 11 Sudeste 24 Sudeste 0 1011.5 1.7 77
2020-01-22 11:00:00 13.2 12 Este 19 Este 0 1010.9 1.4 76
2020-01-22 10:00:00 11.5 11 Este 19 Este 0 1010.3 1.2 83
2020-01-22 09:00:00 10.8 12 Nordeste 21 Nordeste 0 1009.8 0.9 85
2020-01-22 08:00:00 11.3 7 Este 14 Este 0 1009.5 0.3 88
2020-01-22 07:00:00 11.5 6 Sudeste 15 Sudeste 0 1009.1 -0.1 83
2020-01-22 06:00:00 11.6 7 Sur 14 Sur 0 1008.9 -0.2 82
2020-01-22 05:00:00 11.7 4 Sur 17 Sur 0 1009.2 -0.2 80
2020-01-22 04:00:00 11.2 7 Sur 17 Sudeste 0 1009.2 -0.3 81
2020-01-22 03:00:00 11.2 5 Sur 17 Sur 0 1009.1 -0.3 86
2020-01-22 02:00:00 9.6 0 Calma 8 Nordeste 0 1009.4 0.4 87
2020-01-22 01:00:00 9.5 7 Nordeste 9 Nordeste 0 1009.5 0.8 85
2020-01-22 00:00:00 9.6 8 Norte 12 Norte 0 1009.4 0.6 79
2020-01-21 23:00:00 9.5 8 Norte 10 Norte 0 1009 0.6 79
2020-01-21 22:00:00 10.5 5 Noroeste 11 Noroeste 0 1008.7 1.1 74
2020-01-21 21:00:00 11.8 9 Oeste 19 Sudoeste 0 1008.8 1.4 69
2020-01-21 20:00:00 11.9 12 Oeste 23 Sudoeste 0 1008.4 1.2 70
2020-01-21 19:00:00 11.8 13 Sudoeste 21 Sudoeste 0 1007.6 0.6 72
2020-01-21 18:00:00 12 14 Oeste 26 Oeste 0 1007.4 0.2 74
2020-01-21 17:00:00 12.7 17 Oeste 28 Sudoeste 0 1007.2 -0.2 73
2020-01-21 16:00:00 13.3 16 Sudoeste 28 Oeste 0 1007 -1.2 71
2020-01-21 15:00:00 13.6 16 Oeste 26 Sudoeste 0 1007.2 -1.4 66
2020-01-21 14:00:00 13.5 15 Oeste 27 Oeste 0 1007.4 -1.1 62
2020-01-21 13:00:00 13.2 15 Oeste 26 Oeste 0 1008.2 -0.3 66
2020-01-21 12:00:00 12.4 6 Oeste 13 Norte 0 1008.6 0.3 72
2020-01-21 11:00:00 10.2 8 Noroeste 13 Norte 0 1008.5 0.6 80
2020-01-21 10:00:00 9.3 6 Norte 16 Norte 0 1008.5 0.7 82
2020-01-21 09:00:00 8.9 14 Norte 18 Norte 0 1008.3 0.4 78
2020-01-21 08:00:00 7.9 7 Norte 11 Noroeste 0 1007.9 -0.1 84
2020-01-21 07:00:00 8.4 7 Norte 10 Norte 0 1007.8 -0.3 82
2020-01-21 06:00:00 9.7 8 Nordeste 19 Nordeste 0 1007.9 -0.6 77
2020-01-21 05:00:00 9.8 7 Nordeste 17 Nordeste 0 1008 -0.7 83
2020-01-21 04:00:00 9.8 9 Nordeste 27 Nordeste 0 1008.1 -1.1 80
2020-01-21 03:00:00 10.2 15 Nordeste 31 Nordeste 0 1008.5 -0.7 84
2020-01-21 02:00:00 9.8 14 Nordeste 28 Nordeste 0 1008.7 -0.4 86
2020-01-21 01:00:00 10.3 15 Nordeste 39 Nordeste 0 1009.2 0.3 81
2020-01-21 00:00:00 10 19 Nordeste 35 Este 0.3 1009.2 0.6 87
2020-01-20 23:00:00 9.7 19 Nordeste 35 Nordeste 0 1009.1 0.5 89
2020-01-20 22:00:00 10.2 13 Nordeste 27 Este 0 1008.9 0.5 72
2020-01-20 21:00:00 10.1 17 Nordeste 37 Este 0 1008.6 0.4 73
2020-01-20 20:00:00 9.5 17 Nordeste 30 Nordeste 0 1008.6 0.9 76
2020-01-20 19:00:00 8.7 17 Nordeste 34 Nordeste 0 1008.4 0.9 78
2020-01-20 18:00:00 9.4 21 Nordeste 35 Nordeste 0 1008.2 0.5 76
2020-01-20 17:00:00 10.4 16 Nordeste 30 Nordeste 0 1007.7 -0.3 69
2020-01-20 16:00:00 10.6 14 Nordeste 28 Nordeste 0 1007.5 -1.2 74
2020-01-20 15:00:00 10.2 17 Nordeste 32 Nordeste 0 1007.7 -1.3 78
2020-01-20 14:00:00 10.9 17 Nordeste 36 Este 0 1008 -1 69
2020-01-20 13:00:00 12 19 Nordeste 31 Nordeste 0 1008.7 -0.2 63
2020-01-20 12:00:00 11.6 18 Este 30 Este 0 1009 0 64
2020-01-20 11:00:00 9.8 11 Nordeste 20 Nordeste 0 1009 0.1 72
2020-01-20 10:00:00 9.1 12 Nordeste 20 Nordeste 0 1008.9 0.3 75
2020-01-20 09:00:00 7.6 10 Nordeste 15 Nordeste 0 1009 0.7 84
2020-01-20 08:00:00 8.4 10 Nordeste 22 Nordeste 0 1008.9 0.1 83
2020-01-20 07:00:00 8.6 11 Nordeste 48 Este 0.9 1008.6 -0.6 86
2020-01-20 06:00:00 8.3 24 Nordeste 38 Nordeste 0.2 1008.3 -1.1 83
2020-01-20 05:00:00 8.2 23 Nordeste 37 Nordeste 0.7 1008.8 -1.2 90
2020-01-20 04:00:00 7.7 13 Norte 26 Nordeste 0 1009.2 -0.9 91
2020-01-20 03:00:00 8 22 Nordeste 43 Nordeste 1 1009.4 -0.7 90
2020-01-20 02:00:00 8.4 4 Norte 21 Norte 0 1010 -0.3 71
2020-01-20 01:00:00 8.8 15 Norte 20 Norte 0 1010.1 -0.6 68
2020-01-20 00:00:00 9.4 14 Norte 31 Norte 0 1010.1 -1.3 65
2020-01-19 23:00:00 9.4 13 Norte 23 Norte 0 1010.3 -1.7 66
2020-01-19 22:00:00 8.5 6 Norte 14 Noroeste 0 1010.7 -1.5 77
2020-01-19 21:00:00 9.7 8 Noroeste 14 Noroeste 0 1011.4 -1.1 74
2020-01-19 20:00:00 11 12 Noroeste 20 Noroeste 0 1012 -0.8 69
2020-01-19 19:00:00 11.1 15 Norte 27 Norte 0 1012.2 -0.8 76
2020-01-19 18:00:00 11.3 17 Norte 42 Norte 0 1012.5 -0.9 77
2020-01-19 17:00:00 14 15 Noroeste 32 Noroeste 0 1012.8 -1.2 63
2020-01-19 16:00:00 14.4 19 Noroeste 35 Noroeste 0 1013 -2.5 62
2020-01-19 15:00:00 14.3 18 Noroeste 36 Noroeste 0 1013.4 -3.5 63
2020-01-19 14:00:00 13.9 17 Noroeste 35 Noroeste 0 1014 -3.2 66
2020-01-19 13:00:00 12.9 15 Noroeste 30 Oeste 0 1015.5 -1.8 73
2020-01-19 12:00:00 11.8 11 Noroeste 27 Norte 0 1016.9 -0.6 81
2020-01-19 11:00:00 11.7 17 Noroeste 33 Noroeste 0 1017.2 0.1 80
2020-01-19 10:00:00 10.3 12 Noroeste 24 Oeste 0 1017.3 0.7 86
2020-01-19 09:00:00 10.1 11 Noroeste 44 Noroeste 0 1017.5 1 83
2020-01-19 08:00:00 11.3 24 Noroeste 44 Noroeste 0 1017.1 -0.8 76
2020-01-19 07:00:00 11.8 23 Noroeste 48 Noroeste 0 1016.6 -2.2 79
2020-01-19 06:00:00 13.5 28 Oeste 48 Oeste 0 1016.5 -2.8 78
2020-01-19 05:00:00 13.4 27 Oeste 46 Oeste 0 1017.9 -0.9 84
2020-01-19 04:00:00 12.5 19 Noroeste 50 Noroeste 0 1018.8 -1.1 81
2020-01-19 03:00:00 13.4 30 Noroeste 60 Noroeste 0 1019.3 -1.9 79
2020-01-19 02:00:00 14.6 31 Oeste 60 Sudoeste 1.8 1018.8 -2.5 96
2020-01-19 01:00:00 15.5 30 Sudoeste 45 Sudoeste 0 1019.9 -2.4 99
2020-01-19 00:00:00 15.3 30 Oeste 49 Sudoeste 1.3 1021.2 -1.5 99
2020-01-18 23:00:00 15.3 31 Sudoeste 47 Sudoeste 0.2 1021.3 -2 99
2020-01-18 22:00:00 15.2 31 Sudoeste 49 Sudoeste 0.4 1022.3 -1.5 99
2020-01-18 21:00:00 15.4 34 Sudoeste 49 Sudoeste 0.3 1022.7 -1.6 95
2020-01-18 20:00:00 15.7 26 Sudoeste 41 Sudoeste 0 1023.3 -1.2 92
2020-01-18 19:00:00 15.7 24 Sudoeste 36 Sudoeste 0 1023.8 -1 90
2020-01-18 18:00:00 15.7 17 Sudoeste 28 Sudoeste 0 1024.3 -0.9 88
2020-01-18 17:00:00 16.1 15 Oeste 26 Oeste 0 1024.5 -1.6 87
2020-01-18 16:00:00 16.2 14 Oeste 23 Sudoeste 0 1024.8 -2.6 87
2020-01-18 15:00:00 16.2 17 Sudoeste 25 Sudoeste 0 1025.2 -2.9 86
2020-01-18 14:00:00 15.7 14 Oeste 19 Oeste 0 1026.1 -2 81
2020-01-18 13:00:00 16.2 13 Oeste 22 Sudoeste 0 1027.4 0 75
2020-01-18 12:00:00 15 14 Sudoeste 22 Oeste 0 1028.1 1 89
2020-01-18 11:00:00 14.1 4 Noroeste 10 Oeste 0 1028.1 1.7 94
2020-01-18 10:00:00 13.4 6 Noroeste 15 Noroeste 0 1027.4 1.3 98
2020-01-18 09:00:00 12.4 11 Noroeste 16 Noroeste 0 1027.1 1.2 99
2020-01-18 08:00:00 12.3 6 Noroeste 10 Noroeste 0 1026.4 0.5 99
2020-01-18 07:00:00 11.8 5 Noroeste 11 Noroeste 0 1026.1 0 99
2020-01-18 06:00:00 11.4 7 Noroeste 12 Noroeste 0 1025.9 -0.6 99
2020-01-18 05:00:00 9.8 4 Norte 8 Norte 0 1025.9 -0.7 97
2020-01-18 04:00:00 9 6 Norte 9 Norte 0 1026.1 -1.1 97
2020-01-18 03:00:00 9.5 6 Norte 8 Norte 0 1026.5 -1.1 97
2020-01-18 02:00:00 10.5 5 Norte 12 Noroeste 0 1026.6 -1.1 96
2020-01-18 01:00:00 10.4 7 Noroeste 15 Norte 0 1027.2 -0.6 96
2020-01-18 00:00:00 11.4 4 Noroeste 14 Noroeste 0 1027.6 0.4 91
2020-01-17 23:00:00 13 11 Noroeste 15 Noroeste 0 1027.7 0.3 91
2020-01-17 22:00:00 12.4 9 Noroeste 13 Norte 0 1027.8 1 91
2020-01-17 21:00:00 13.3 8 Noroeste 11 Noroeste 0 1027.2 0.5 89
2020-01-17 20:00:00 14.1 3 Noroeste 11 Noroeste 0 1027.4 1 85
2020-01-17 19:00:00 14.5 9 Noroeste 17 Oeste 0 1026.8 0.4 84
2020-01-17 18:00:00 14.9 9 Oeste 20 Oeste 0 1026.7 0 80
2020-01-17 17:00:00 15.5 10 Oeste 18 Oeste 0 1026.4 -1.1 76
2020-01-17 16:00:00 15.8 13 Oeste 23 Sudoeste 0 1026.4 -1.8 70
2020-01-17 15:00:00 16 14 Oeste 26 Oeste 0 1026.7 -2.1 67
2020-01-17 14:00:00 15.9 12 Oeste 23 Oeste 0 1027.5 -1.5 67
2020-01-17 13:00:00 15.4 15 Oeste 20 Noroeste 0 1028.2 0.2 69
2020-01-17 12:00:00 15.5 8 Noroeste 17 Noroeste 0 1028.8 1.3 67
2020-01-17 11:00:00 14.7 8 Noroeste 12 Noroeste 0 1029 1.8 64
2020-01-17 10:00:00 12.6 4 Norte 9 Norte 0 1028 1.6 70
2020-01-17 09:00:00 9.3 8 Norte 11 Norte 0 1027.5 1.4 77
2020-01-17 08:00:00 9.6 9 Noroeste 16 Norte 0 1027.2 1.4 80
2020-01-17 07:00:00 10.1 10 Norte 14 Noroeste 0 1026.4 0.2 81
2020-01-17 06:00:00 9.6 12 Norte 14 Norte 0 1026.1 0 91
2020-01-17 05:00:00 8.5 5 Nordeste 10 Norte 0 1025.8 -0.1 96
2020-01-17 04:00:00 7.8 8 Norte 10 Norte 0 1026.2 -0.3 97
2020-01-17 03:00:00 8.2 7 Nordeste 10 Nordeste 0 1026.1 -0.1 97
2020-01-17 02:00:00 7.7 6 Norte 8 Norte 0 1025.9 0.1 96
2020-01-17 01:00:00 8 5 Norte 8 Nordeste 0 1026.5 0.9 94
2020-01-17 00:00:00 8.4 4 Nordeste 9 Nordeste 0 1026.2 1.1 91
2020-01-16 23:00:00 7.9 7 Nordeste 10 Norte 0 1025.8 1.1 91
2020-01-16 22:00:00 8.2 7 Norte 9 Norte 0 1025.6 1.4 92
2020-01-16 21:00:00 8.6 7 Norte 9 Norte 0 1025.1 1.5 92
2020-01-16 20:00:00 9.7 7 Nordeste 9 Norte 0 1024.7 1.3 91
2020-01-16 19:00:00 12.6 4 Nordeste 14 Este 0 1024.2 1.3 89
2020-01-16 18:00:00 14.6 11 Este 24 Este 0 1023.6 0.6 84
2020-01-16 17:00:00 15.2 17 Este 27 Este 0 1023.4 0 82
2020-01-16 16:00:00 15.6 18 Este 27 Este 0 1022.9 -1 80
2020-01-16 15:00:00 16.2 19 Este 31 Este 0 1023 -1.4 72
2020-01-16 14:00:00 15.9 21 Este 33 Este 0 1023.4 -1.1 75
2020-01-16 13:00:00 15.8 22 Este 32 Este 0 1023.9 0.2 74
2020-01-16 12:00:00 15.6 18 Este 28 Este 0 1024.4 1.3 77
2020-01-16 11:00:00 14.7 19 Este 31 Este 0 1024.5 1.6 80
2020-01-16 10:00:00 14.1 19 Este 26 Este 0 1023.7 1.4 82
2020-01-16 09:00:00 12.6 19 Este 28 Nordeste 0 1023.1 1.1 82
2020-01-16 08:00:00 12.3 17 Este 24 Este 0 1022.9 0.6 79
2020-01-16 07:00:00 12.2 14 Este 29 Este 0 1022.3 -0.3 76
2020-01-16 06:00:00 11.9 19 Este 26 Este 0 1022 -0.6 85
2020-01-16 05:00:00 12.2 15 Este 22 Este 0 1022.3 -0.4 75
2020-01-16 04:00:00 12.7 12 Este 19 Este 0 1022.6 -0.4 58
2020-01-16 03:00:00 13.2 10 Este 14 Este 0 1022.6 -0.6 56
2020-01-16 02:00:00 12.5 12 Este 14 Este 0 1022.7 -0.3 52
2020-01-16 01:00:00 9.2 4 Nordeste 9 Norte 0 1023 0 69
2020-01-16 00:00:00 10.1 5 Nordeste 10 Nordeste 0 1023.2 0.1 69
2020-01-15 23:00:00 10.2 9 Nordeste 11 Nordeste 0 1023 0.1 77
2020-01-15 22:00:00 10.5 7 Nordeste 13 Este 0 1023 0.5 69
2020-01-15 21:00:00 11.9 9 Nordeste 14 Nordeste 0 1023.1 0.8 77
2020-01-15 20:00:00 12 9 Norte 13 Norte 0 1022.9 0.7 57
2020-01-15 19:00:00 13.8 8 Norte 12 Norte 0 1022.5 0.7 61
2020-01-15 18:00:00 16.7 8 Norte 13 Noroeste 0 1022.3 0.6 51
2020-01-15 17:00:00 17.1 7 Noroeste 14 Oeste 0 1022.2 0 52
2020-01-15 16:00:00 17.6 6 Noroeste 14 Oeste 0 1021.8 -0.7 47
2020-01-15 15:00:00 18.4 8 Sudoeste 14 Sudoeste 0 1021.7 -1.5 44
2020-01-15 14:00:00 16.7 6 Oeste 12 Noroeste 0 1022.2 -0.5 48
2020-01-15 13:00:00 16.5 7 Oeste 13 Sudoeste 0 1022.5 0.5 50
2020-01-15 12:00:00 16 2 Oeste 7 Sur 0 1023.2 1.7 61
2020-01-15 11:00:00 14.9 4 Sur 7 Sur 0 1022.7 1.8 64
2020-01-15 10:00:00 10.4 6 Norte 12 Nordeste 0 1022 1.6 80
2020-01-15 09:00:00 8.1 9 Norte 11 Norte 0 1021.5 1.5 86
2020-01-15 08:00:00 8.7 8 Norte 12 Nordeste 0 1020.9 0.9 87
2020-01-15 07:00:00 7.9 9 Norte 12 Norte 0 1020.4 0.3 94
2020-01-15 06:00:00 7.8 8 Norte 9 Norte 0 1020 -0.2 96
2020-01-15 05:00:00 7.9 5 Norte 8 Norte 0 1020 -0.2 96
2020-01-15 04:00:00 8.4 6 Nordeste 9 Nordeste 0 1020.1 -0.3 95
2020-01-15 03:00:00 8.5 8 Norte 10 Nordeste 0 1020.2 -0.3 94
2020-01-15 02:00:00 8.2 8 Norte 9 Norte 0 1020.2 -0.2 91
2020-01-15 01:00:00 8.5 7 Norte 9 Nordeste 0 1020.4 0.3 90
2020-01-15 00:00:00 9.3 8 Norte 10 Norte 0 1020.5 0.5 83
2020-01-14 23:00:00 9.4 5 Norte 10 Norte 0 1020.4 0.4 81
2020-01-14 22:00:00 10.6 9 Norte 17 Norte 0 1020.1 0.3 77
2020-01-14 21:00:00 11.6 15 Norte 19 Norte 0 1020 0.4 77
2020-01-14 20:00:00 12 12 Noroeste 17 Noroeste 0 1020 0.5 79
2020-01-14 19:00:00 13.7 8 Noroeste 19 Oeste 0 1019.8 0.9 79
2020-01-14 18:00:00 14.3 12 Oeste 21 Oeste 0 1019.6 0.4 74
2020-01-14 17:00:00 15.2 13 Oeste 21 Oeste 0 1019.5 -0.4 69
2020-01-14 16:00:00 15.8 14 Sudoeste 25 Oeste 0 1018.9 -1.7 65
2020-01-14 15:00:00 15.1 15 Oeste 24 Oeste 0 1019.2 -2 73
2020-01-14 14:00:00 14.6 15 Oeste 26 Oeste 0 1019.9 -1.1 74
2020-01-14 13:00:00 14.3 15 Oeste 27 Oeste 0 1020.6 0.3 73
2020-01-14 12:00:00 14.2 19 Sudoeste 29 Sudoeste 0 1021.2 1.6 82
2020-01-14 11:00:00 14 18 Sudoeste 27 Sudoeste 0 1021 1.5 80
2020-01-14 10:00:00 13.7 14 Sudoeste 26 Sudoeste 0 1020.3 1.4 82
2020-01-14 09:00:00 11.8 8 Sudoeste 17 Noroeste 0 1019.6 0.7 91
2020-01-14 08:00:00 9.9 5 Norte 9 Norte 0 1019.5 0.6 96
2020-01-14 07:00:00 10.5 2 Noroeste 13 Oeste 0 1018.9 -0.2 93
2020-01-14 06:00:00 10 4 Norte 9 Norte 0 1018.9 -0.3 97
2020-01-14 05:00:00 9.3 6 Norte 9 Norte 0 1018.9 -0.8 98
2020-01-14 04:00:00 8.6 2 Noroeste 12 Sudoeste 0 1019.1 -0.9 96
2020-01-14 03:00:00 9.1 5 Nordeste 9 Nordeste 0 1019.2 -1.3 96
2020-01-14 02:00:00 9.1 6 Nordeste 9 Nordeste 0 1019.7 -0.5 96
2020-01-14 01:00:00 7.8 5 Nordeste 9 Nordeste 0 1020 -0.3 95
2020-01-14 00:00:00 8.4 5 Nordeste 9 Nordeste 0 1020.5 -0.4 93
2020-01-13 23:00:00 10.1 5 Nordeste 12 Nordeste 0 1020.2 -0.7 88
2020-01-13 22:00:00 10.5 9 Nordeste 13 Nordeste 0 1020.3 -0.5 87
2020-01-13 21:00:00 11.6 9 Nordeste 15 Nordeste 0 1020.9 0.2 84
2020-01-13 20:00:00 11.7 10 Nordeste 18 Nordeste 0 1020.9 0.3 85
2020-01-13 19:00:00 12.1 12 Nordeste 24 Este 0 1020.8 0 84
2020-01-13 18:00:00 13.3 17 Este 27 Este 0 1020.7 -0.1 79
2020-01-13 17:00:00 14.5 19 Este 32 Este 0 1020.6 -1.1 76
2020-01-13 16:00:00 14.8 20 Este 31 Este 0 1020.8 -1.7 75
2020-01-13 15:00:00 14.9 20 Este 31 Este 0 1020.8 -2.1 72
2020-01-13 14:00:00 15.1 21 Este 33 Este 0 1021.7 -1.1 69
2020-01-13 13:00:00 15.2 19 Este 41 Este 0 1022.5 -0.2 71
2020-01-13 12:00:00 14.7 24 Este 39 Este 0 1022.9 1.1 74
2020-01-13 11:00:00 14.2 21 Nordeste 36 Este 0 1022.8 0.7 74
2020-01-13 10:00:00 13.5 19 Nordeste 37 Este 0 1022.7 0.8 77
2020-01-13 09:00:00 12.2 22 Nordeste 37 Este 0 1021.8 -0.2 81
2020-01-13 08:00:00 12.1 21 Nordeste 35 Este 0 1022.1 -0.1 81
2020-01-13 07:00:00 12.2 21 Nordeste 35 Nordeste 0 1021.9 -0.6 82
2020-01-13 06:00:00 12.1 23 Nordeste 36 Este 0 1022 -0.6 81
2020-01-13 05:00:00 12.1 20 Nordeste 37 Este 0 1022.2 -1.1 81
2020-01-13 04:00:00 12.2 24 Este 39 Este 0 1022.5 -1.3 80
2020-01-13 03:00:00 12.2 23 Este 36 Este 0 1022.6 -1.9 82
2020-01-13 02:00:00 12.1 18 Nordeste 34 Este 0 1023.3 -0.8 82
2020-01-13 01:00:00 12.2 18 Nordeste 29 Este 0 1023.8 -0.3 80
2020-01-13 00:00:00 12.5 18 Nordeste 32 Este 0 1024.5 0.5 79
2020-01-12 23:00:00 12.5 18 Este 30 Nordeste 0 1024.1 -0.1 79
2020-01-12 22:00:00 11.9 11 Nordeste 26 Este 0 1024.1 0.5 83
2020-01-12 21:00:00 13 14 Este 30 Este 0 1024 0.4 79
2020-01-12 20:00:00 13.2 17 Este 31 Este 0 1024.2 0.5 76
2020-01-12 19:00:00 13.5 16 Este 27 Este 0 1023.6 -0.3 79
2020-01-12 18:00:00 14.2 14 Este 25 Este 0 1023.6 -0.4 73
2020-01-12 17:00:00 14.6 16 Este 26 Este 0 1023.7 -0.9 78
2020-01-12 16:00:00 15.2 14 Este 29 Este 0 1023.9 -1.4 74
2020-01-12 15:00:00 15.4 14 Este 31 Este 0 1024 -1.9 73
2020-01-12 14:00:00 15.5 18 Este 31 Este 0 1024.6 -1.5 70
2020-01-12 13:00:00 15 21 Este 39 Este 0 1025.3 -0.3 73
2020-01-12 12:00:00 15 24 Este 39 Este 0 1025.9 0.3 72
2020-01-12 11:00:00 14.1 20 Este 39 Nordeste 0 1026.1 0.7 75
2020-01-12 10:00:00 12.9 25 Nordeste 36 Este 0 1025.6 0.4 78
2020-01-12 09:00:00 11.9 17 Nordeste 27 Nordeste 0 1025.6 0.9 81
2020-01-12 08:00:00 11.9 16 Nordeste 42 Nordeste 0 1025.4 0.3 81
2020-01-12 07:00:00 12.2 15 Nordeste 28 Nordeste 0 1025.2 -0.2 80
2020-01-12 06:00:00 12.7 17 Nordeste 30 Nordeste 0 1024.7 -0.6 80
2020-01-12 05:00:00 12.8 15 Nordeste 36 Este 0 1025.1 0.1 81
2020-01-12 04:00:00 12.9 20 Nordeste 31 Nordeste 0 1025.4 0.1 81
2020-01-12 03:00:00 13.3 18 Nordeste 40 Este 0 1025.3 -0.1 81
2020-01-12 02:00:00 13.5 28 Este 42 Este 0 1025 -0.2 77
2020-01-12 01:00:00 13.7 27 Este 46 Este 0 1025.3 0.1 79
2020-01-12 00:00:00 13.7 30 Este 50 Este 0 1025.4 0.3 77
2020-01-11 23:00:00 13.7 33 Este 49 Este 0 1025.2 0.4 79
2020-01-11 22:00:00 13.6 27 Este 45 Este 0 1025.2 0.9 79
2020-01-11 21:00:00 13.7 24 Este 44 Este 0 1025.1 1.4 78
2020-01-11 20:00:00 13.5 26 Este 48 Este 0 1024.8 1.2 73
2020-01-11 19:00:00 13.6 25 Este 40 Este 0 1024.3 0.9 78
2020-01-11 18:00:00 13 21 Nordeste 34 Este 0.3 1023.7 0.4 81
2020-01-11 17:00:00 14.3 23 Este 38 Este 0 1023.6 -0.1 74
2020-01-11 16:00:00 14.7 31 Este 46 Este 0 1023.4 -0.9 74
2020-01-11 15:00:00 15.2 32 Este 47 Este 0 1023.3 -1.5 72
2020-01-11 14:00:00 15.4 34 Este 50 Este 0 1023.7 -1.3 70
2020-01-11 13:00:00 15.9 30 Este 51 Este 0 1024.3 0.1 66
2020-01-11 12:00:00 15.1 28 Este 44 Este 0 1024.8 1.2 69
2020-01-11 11:00:00 14.9 21 Este 31 Este 0 1025 2 72
2020-01-11 10:00:00 13.8 15 Este 27 Este 0 1024.2 1.9 78
2020-01-11 09:00:00 12.6 8 Este 23 Este 0 1023.6 1.6 84
2020-01-11 08:00:00 11.8 12 Nordeste 21 Este 0 1023 1.1 84
2020-01-11 07:00:00 12.7 13 Nordeste 24 Este 0 1022.3 0.5 81
2020-01-11 06:00:00 12.2 16 Nordeste 28 Este 0 1022 0.2 82
2020-01-11 05:00:00 12.6 17 Nordeste 32 Nordeste 0 1021.9 0.1 78
2020-01-11 04:00:00 12.2 19 Nordeste 30 Nordeste 0 1021.8 -0.3 80
2020-01-11 03:00:00 10 3 Noroeste 9 Noroeste 0 1021.8 -0.5 90
2020-01-11 02:00:00 8.2 6 Nordeste 10 Nordeste 0 1021.8 -0.5 95
2020-01-11 01:00:00 9.1 2 Nordeste 11 Sur 0 1022.1 0.2 91
2020-01-11 00:00:00 7.7 3 Este 10 Este 0 1022.3 0.7 91
2020-01-10 23:00:00 7.2 5 Nordeste 12 Nordeste 0 1022.3 1 91
2020-01-10 22:00:00 8.4 7 Nordeste 12 Norte 0 1021.9 0.9 89
2020-01-10 21:00:00 10.2 3 Noroeste 10 Noroeste 0 1021.6 1.1 84
2020-01-10 20:00:00 11.5 8 Noroeste 16 Noroeste 0 1021.3 1.1 80
2020-01-10 19:00:00 12.5 10 Noroeste 38 Oeste 0 1021 0.7 76
2020-01-10 18:00:00 12.8 16 Oeste 32 Oeste 0 1020.5 0 78
2020-01-10 17:00:00 13.1 17 Oeste 33 Oeste 0 1020.2 -0.6 74
2020-01-10 16:00:00 13.9 19 Oeste 34 Oeste 0 1020.3 -1.3 72
2020-01-10 15:00:00 13.8 15 Oeste 33 Oeste 0 1020.5 -1.7 77
2020-01-10 14:00:00 13 17 Oeste 34 Oeste 0 1020.8 -2.1 79
2020-01-10 13:00:00 13.4 22 Oeste 44 Oeste 0 1021.6 -0.8 76
2020-01-10 12:00:00 12.5 23 Noroeste 38 Oeste 0 1022.2 0.2 79
2020-01-10 11:00:00 11.3 16 Noroeste 31 Noroeste 0 1022.9 1 90
2020-01-10 10:00:00 9.6 9 Noroeste 20 Norte 0 1022.4 0.6 98
2020-01-10 09:00:00 9.4 12 Norte 18 Norte 0 1022 0.3 96
2020-01-10 08:00:00 9.3 9 Noroeste 19 Noroeste 0 1021.9 0.1 91
2020-01-10 07:00:00 9.8 8 Noroeste 22 Noroeste 0 1021.8 -0.4 87
2020-01-10 06:00:00 9.4 10 Noroeste 16 Oeste 0 1021.7 -0.6 91
2020-01-10 05:00:00 10.2 10 Noroeste 15 Noroeste 0 1021.8 -0.6 87
2020-01-10 04:00:00 9.1 7 Noroeste 12 Noroeste 0 1022.2 -0.5 91
2020-01-10 03:00:00 8.9 6 Oeste 10 Noroeste 0 1022.3 -0.9 91
2020-01-10 02:00:00 10.1 8 Noroeste 20 Noroeste 0 1022.4 -0.6 87
2020-01-10 01:00:00 10.4 10 Noroeste 38 Noroeste 0 1022.7 -0.4 89
2020-01-10 00:00:00 10.6 13 Noroeste 19 Norte 0 1023.2 -0.3 88
2020-01-09 23:00:00 8.8 8 Noroeste 11 Noroeste 0 1023 -0.2 94
2020-01-09 22:00:00 9.7 7 Norte 10 Norte 0 1023.1 0.8 88
2020-01-09 21:00:00 9.4 8 Nordeste 10 Norte 0 1023.5 1.5 88
2020-01-09 20:00:00 10.9 6 Norte 12 Nordeste 0 1023.2 1 87
2020-01-09 19:00:00 12.3 7 Nordeste 22 Este 0 1022.3 0.5 83
2020-01-09 18:00:00 14.3 15 Este 24 Este 0 1022 0.1 76
2020-01-09 17:00:00 14.9 15 Este 26 Este 0 1022.2 -0.3 70
2020-01-09 16:00:00 15.3 19 Este 32 Este 0 1021.8 -1.7 70
2020-01-09 15:00:00 15.5 20 Este 31 Este 0 1021.9 -2.1 69
2020-01-09 14:00:00 15.5 21 Este 31 Este 0 1022.5 -1.5 68
2020-01-09 13:00:00 15.6 19 Este 32 Este 0 1023.5 0.2 64
2020-01-09 12:00:00 15.6 20 Este 39 Este 0 1024 1 65
2020-01-09 11:00:00 14.9 23 Este 37 Este 0 1024 1.4 68
2020-01-09 10:00:00 14.2 26 Este 36 Este 0 1023.3 0.8 71
2020-01-09 09:00:00 13.1 21 Este 39 Este 0 1023 0.4 77
2020-01-09 08:00:00 13.1 21 Este 40 Este 0 1022.6 -0.2 80
2020-01-09 07:00:00 12.7 21 Este 35 Este 0 1022.5 -0.9 81
2020-01-09 06:00:00 12.5 18 Nordeste 40 Este 0 1022.6 -0.4 80
2020-01-09 05:00:00 12.5 19 Este 36 Este 0 1022.8 -0.2 82
2020-01-09 04:00:00 12.5 17 Este 46 Este 0 1023.4 0.3 80
2020-01-09 03:00:00 13.1 24 Este 48 Este 0 1023 -0.6 80
2020-01-09 02:00:00 12.8 29 Este 47 Nordeste 0 1023 -0.6 81
2020-01-09 01:00:00 13.2 30 Este 50 Este 0 1023.1 -0.1 82
2020-01-09 00:00:00 12.9 30 Este 47 Este 0 1023.6 0.9 83
2020-01-08 23:00:00 12.8 22 Nordeste 39 Este 0 1023.6 0.9 84
2020-01-08 22:00:00 12.6 21 Nordeste 44 Este 0 1023.2 0.5 84
2020-01-08 21:00:00 12.5 30 Este 46 Este 0 1022.7 0.3 85
2020-01-08 20:00:00 13 25 Este 42 Este 0 1022.7 0.5 86
2020-01-08 19:00:00 12.7 18 Este 34 Este 0 1022.7 0.4 89
2020-01-08 18:00:00 13.7 22 Este 35 Este 0 1022.4 -0.1 86
2020-01-08 17:00:00 14.7 20 Este 34 Este 0 1022.2 -0.5 80
2020-01-08 16:00:00 14.9 21 Este 33 Este 0 1022.3 -1.1 81
2020-01-08 15:00:00 15.7 23 Este 33 Este 0 1022.5 -1.5 78
2020-01-08 14:00:00 15.5 24 Este 33 Este 0 1022.7 -1.5 79
2020-01-08 13:00:00 15 23 Este 34 Este 0 1023.4 -0.4 81
2020-01-08 12:00:00 14.7 21 Este 35 Este 0 1024 0.3 81
2020-01-08 11:00:00 14.2 20 Este 33 Este 0 1024.2 0.9 84
2020-01-08 10:00:00 13.4 15 Este 27 Nordeste 0 1023.8 0.8 86
2020-01-08 09:00:00 11.7 11 Nordeste 21 Este 0 1023.7 0.6 91
2020-01-08 08:00:00 11.5 10 Nordeste 20 Nordeste 0 1023.3 0.1 91
2020-01-08 07:00:00 11.5 12 Nordeste 27 Este 0 1023 -0.4 89
2020-01-08 06:00:00 11.7 15 Nordeste 25 Nordeste 0 1023.1 -0.4 86
2020-01-08 05:00:00 11.5 13 Nordeste 28 Este 0 1023.2 -0.7 87
2020-01-08 04:00:00 12 19 Este 37 Este 0 1023.4 -0.6 85
2020-01-08 03:00:00 11.9 17 Nordeste 29 Este 0 1023.5 -1.3 84
2020-01-08 02:00:00 12 15 Nordeste 34 Este 0 1023.9 -0.8 86
2020-01-08 01:00:00 12.3 20 Nordeste 37 Nordeste 0 1024 -0.9 85
2020-01-08 00:00:00 12.4 21 Este 35 Este 0 1024.8 0 86
2020-01-07 23:00:00 12.5 23 Este 37 Este 0 1024.7 -0.2 85
2020-01-07 22:00:00 12.6 24 Este 37 Este 0 1024.9 0.6 87
2020-01-07 21:00:00 12.3 21 Nordeste 41 Este 0 1024.8 0.8 88
2020-01-07 20:00:00 12.7 28 Este 44 Este 0 1024.9 0.8 87
2020-01-07 19:00:00 12.6 23 Este 43 Este 0 1024.3 0.1 87
2020-01-07 18:00:00 13.6 24 Este 40 Este 0 1024 -0.4 84
2020-01-07 17:00:00 14.2 19 Este 35 Este 0 1024.1 -0.4 80
2020-01-07 16:00:00 14.7 18 Nordeste 37 Nordeste 0 1024.2 -0.5 76
2020-01-07 15:00:00 14.5 22 Nordeste 43 Este 0 1024.4 -1 75
2020-01-07 14:00:00 15.2 26 Este 46 Este 0 1024.5 -1.7 71
2020-01-07 13:00:00 15.2 28 Este 48 Este 0 1024.7 -1 76
2020-01-07 12:00:00 14.8 31 Este 51 Este 0 1025.4 -0.1 76
2020-01-07 11:00:00 14 18 Nordeste 37 Nordeste 0 1026.2 1 79
2020-01-07 10:00:00 13.1 18 Nordeste 32 Nordeste 0 1025.7 1 79
2020-01-07 09:00:00 12.5 18 Nordeste 36 Este 0 1025.5 1.1 81
2020-01-07 08:00:00 12.4 19 Nordeste 33 Este 0 1025.2 0.9 83
2020-01-07 07:00:00 12.2 17 Nordeste 35 Nordeste 0 1024.7 0.3 83
2020-01-07 06:00:00 12.5 18 Nordeste 30 Nordeste 0 1024.4 -0.3 83
2020-01-07 05:00:00 13.2 18 Nordeste 39 Este 0 1024.3 -0.4 76
2020-01-07 04:00:00 13.6 25 Este 41 Este 0 1024.4 -0.3 74
2020-01-07 03:00:00 13.7 24 Este 38 Este 0 1024.7 -0.2 79
2020-01-07 02:00:00 13.6 24 Este 41 Este 0 1024.7 -0.1 76
2020-01-07 01:00:00 13.6 26 Este 44 Este 0 1024.7 0.5 76
2020-01-07 00:00:00 13.8 27 Este 50 Este 0 1024.9 0.6 76
2020-01-06 23:00:00 13.2 19 Este 45 Este 0 1024.8 1 77
2020-01-06 22:00:00 13.3 28 Este 48 Este 0 1024.2 0.9 74
2020-01-06 21:00:00 12.7 14 Nordeste 37 Este 0 1024.3 1.4 76
2020-01-06 20:00:00 13.3 22 Este 40 Este 0 1023.8 0.9 75
2020-01-06 19:00:00 12.6 15 Nordeste 36 Este 0 1023.3 0.6 81
2020-01-06 18:00:00 13.8 23 Este 39 Este 0 1022.9 -0.1 77
2020-01-06 17:00:00 14.4 22 Este 35 Nordeste 0 1022.9 -0.4 70
2020-01-06 16:00:00 14.2 21 Nordeste 35 Este 0 1022.7 -1.1 74
2020-01-06 15:00:00 14.4 15 Nordeste 31 Este 0 1023 -1.3 73
2020-01-06 14:00:00 14.3 18 Nordeste 38 Este 0 1023.3 -1 76
2020-01-06 13:00:00 14.2 23 Nordeste 44 Nordeste 0 1023.8 0 77
2020-01-06 12:00:00 14.1 22 Nordeste 42 Este 0 1024.3 0.9 80
2020-01-06 11:00:00 14 23 Este 40 Este 0 1024.3 1.5 80
2020-01-06 10:00:00 13.8 18 Nordeste 32 Este 0 1023.8 1.5 80